sensor_id;sensor_type;location;lat;lon;timestamp;P1;durP1;ratioP1;P2;durP2;ratioP2
17365;SDS011;8800;50.118;9.900;2023-05-21T00:00:24;22.95;;;13.00;;
17365;SDS011;8800;50.118;9.900;2023-05-21T00:02:51;22.25;;;13.18;;
17365;SDS011;8800;50.118;9.900;2023-05-21T00:05:18;20.33;;;13.07;;
17365;SDS011;8800;50.118;9.900;2023-05-21T00:07:45;22.92;;;13.73;;
17365;SDS011;8800;50.118;9.900;2023-05-21T00:10:13;22.98;;;14.57;;
17365;SDS011;8800;50.118;9.900;2023-05-21T00:12:40;21.85;;;13.80;;
17365;SDS011;8800;50.118;9.900;2023-05-21T00:15:09;21.33;;;13.55;;
17365;SDS011;8800;50.118;9.900;2023-05-21T00:17:35;22.10;;;13.05;;
17365;SDS011;8800;50.118;9.900;2023-05-21T00:20:02;21.75;;;14.35;;
17365;SDS011;8800;50.118;9.900;2023-05-21T00:22:32;23.80;;;13.30;;
17365;SDS011;8800;50.118;9.900;2023-05-21T00:25:00;20.52;;;13.65;;
17365;SDS011;8800;50.118;9.900;2023-05-21T00:27:29;19.30;;;12.68;;
17365;SDS011;8800;50.118;9.900;2023-05-21T00:29:55;22.02;;;13.68;;
17365;SDS011;8800;50.118;9.900;2023-05-21T00:32:24;22.05;;;13.70;;
17365;SDS011;8800;50.118;9.900;2023-05-21T00:34:51;22.20;;;13.63;;
17365;SDS011;8800;50.118;9.900;2023-05-21T00:37:18;19.95;;;13.55;;
17365;SDS011;8800;50.118;9.900;2023-05-21T00:39:45;22.20;;;14.07;;
17365;SDS011;8800;50.118;9.900;2023-05-21T00:42:14;22.38;;;14.00;;
17365;SDS011;8800;50.118;9.900;2023-05-21T00:44:42;19.98;;;12.98;;
17365;SDS011;8800;50.118;9.900;2023-05-21T00:47:09;21.00;;;13.35;;
17365;SDS011;8800;50.118;9.900;2023-05-21T00:49:37;21.13;;;13.38;;
17365;SDS011;8800;50.118;9.900;2023-05-21T00:52:06;21.75;;;12.52;;
17365;SDS011;8800;50.118;9.900;2023-05-21T00:54:34;20.67;;;13.63;;
17365;SDS011;8800;50.118;9.900;2023-05-21T00:57:01;20.92;;;13.07;;
17365;SDS011;8800;50.118;9.900;2023-05-21T00:59:29;20.75;;;13.65;;
17365;SDS011;8800;50.118;9.900;2023-05-21T01:01:56;20.55;;;13.80;;
17365;SDS011;8800;50.118;9.900;2023-05-21T01:04:28;22.60;;;13.45;;
17365;SDS011;8800;50.118;9.900;2023-05-21T01:06:56;20.55;;;13.25;;
17365;SDS011;8800;50.118;9.900;2023-05-21T01:09:24;21.77;;;13.23;;
17365;SDS011;8800;50.118;9.900;2023-05-21T01:11:51;21.17;;;13.20;;
17365;SDS011;8800;50.118;9.900;2023-05-21T01:14:18;21.10;;;12.48;;
17365;SDS011;8800;50.118;9.900;2023-05-21T01:16:46;24.88;;;14.27;;
17365;SDS011;8800;50.118;9.900;2023-05-21T01:19:14;20.30;;;11.90;;
17365;SDS011;8800;50.118;9.900;2023-05-21T01:21:45;19.70;;;12.77;;
17365;SDS011;8800;50.118;9.900;2023-05-21T01:24:13;23.52;;;13.93;;
17365;SDS011;8800;50.118;9.900;2023-05-21T01:26:39;19.45;;;13.30;;
17365;SDS011;8800;50.118;9.900;2023-05-21T01:29:08;23.13;;;13.50;;
17365;SDS011;8800;50.118;9.900;2023-05-21T01:31:40;22.13;;;13.27;;
17365;SDS011;8800;50.118;9.900;2023-05-21T01:34:07;21.92;;;13.20;;
17365;SDS011;8800;50.118;9.900;2023-05-21T01:36:37;21.73;;;13.82;;
17365;SDS011;8800;50.118;9.900;2023-05-21T01:39:07;21.13;;;13.27;;
17365;SDS011;8800;50.118;9.900;2023-05-21T01:41:37;21.98;;;13.88;;
17365;SDS011;8800;50.118;9.900;2023-05-21T01:44:05;23.13;;;13.38;;
17365;SDS011;8800;50.118;9.900;2023-05-21T01:46:34;20.50;;;13.35;;
17365;SDS011;8800;50.118;9.900;2023-05-21T01:49:01;19.48;;;12.88;;
17365;SDS011;8800;50.118;9.900;2023-05-21T01:51:31;19.80;;;12.85;;
17365;SDS011;8800;50.118;9.900;2023-05-21T01:53:58;24.23;;;13.32;;
17365;SDS011;8800;50.118;9.900;2023-05-21T01:56:24;21.90;;;13.70;;
17365;SDS011;8800;50.118;9.900;2023-05-21T01:58:55;23.00;;;14.10;;
17365;SDS011;8800;50.118;9.900;2023-05-21T02:01:23;20.75;;;13.10;;
17365;SDS011;8800;50.118;9.900;2023-05-21T02:03:52;22.55;;;13.63;;
17365;SDS011;8800;50.118;9.900;2023-05-21T02:06:19;22.30;;;12.85;;
17365;SDS011;8800;50.118;9.900;2023-05-21T02:08:47;20.80;;;13.38;;
17365;SDS011;8800;50.118;9.900;2023-05-21T02:11:14;22.35;;;13.52;;
17365;SDS011;8800;50.118;9.900;2023-05-21T02:13:41;19.95;;;12.82;;
17365;SDS011;8800;50.118;9.900;2023-05-21T02:16:09;24.05;;;14.07;;
17365;SDS011;8800;50.118;9.900;2023-05-21T02:18:38;19.52;;;12.77;;
17365;SDS011;8800;50.118;9.900;2023-05-21T02:21:06;23.05;;;13.52;;
17365;SDS011;8800;50.118;9.900;2023-05-21T02:23:32;22.30;;;13.02;;
17365;SDS011;8800;50.118;9.900;2023-05-21T02:25:59;18.77;;;13.10;;
17365;SDS011;8800;50.118;9.900;2023-05-21T02:28:26;20.83;;;13.77;;
17365;SDS011;8800;50.118;9.900;2023-05-21T02:30:53;21.67;;;13.30;;
17365;SDS011;8800;50.118;9.900;2023-05-21T02:33:23;20.27;;;12.77;;
17365;SDS011;8800;50.118;9.900;2023-05-21T02:35:50;23.85;;;13.30;;
17365;SDS011;8800;50.118;9.900;2023-05-21T02:38:17;20.30;;;13.73;;
17365;SDS011;8800;50.118;9.900;2023-05-21T02:40:47;20.30;;;13.45;;
17365;SDS011;8800;50.118;9.900;2023-05-21T02:43:14;18.90;;;12.65;;
17365;SDS011;8800;50.118;9.900;2023-05-21T02:45:40;21.23;;;12.98;;
17365;SDS011;8800;50.118;9.900;2023-05-21T02:48:07;21.08;;;13.30;;
17365;SDS011;8800;50.118;9.900;2023-05-21T02:50:36;21.77;;;13.30;;
17365;SDS011;8800;50.118;9.900;2023-05-21T02:53:03;21.83;;;12.80;;
17365;SDS011;8800;50.118;9.900;2023-05-21T02:55:30;21.83;;;13.50;;
17365;SDS011;8800;50.118;9.900;2023-05-21T02:57:57;23.67;;;13.25;;
17365;SDS011;8800;50.118;9.900;2023-05-21T03:00:23;20.38;;;14.32;;
17365;SDS011;8800;50.118;9.900;2023-05-21T03:02:50;19.83;;;12.68;;
17365;SDS011;8800;50.118;9.900;2023-05-21T03:05:16;23.15;;;13.75;;
17365;SDS011;8800;50.118;9.900;2023-05-21T03:07:47;20.08;;;13.02;;
17365;SDS011;8800;50.118;9.900;2023-05-21T03:10:14;21.95;;;13.60;;
17365;SDS011;8800;50.118;9.900;2023-05-21T03:12:40;21.88;;;14.15;;
17365;SDS011;8800;50.118;9.900;2023-05-21T03:15:07;21.65;;;13.18;;
17365;SDS011;8800;50.118;9.900;2023-05-21T03:17:34;22.65;;;13.70;;
17365;SDS011;8800;50.118;9.900;2023-05-21T03:20:01;19.08;;;12.80;;
17365;SDS011;8800;50.118;9.900;2023-05-21T03:22:29;25.15;;;14.20;;
17365;SDS011;8800;50.118;9.900;2023-05-21T03:24:57;22.15;;;14.15;;
17365;SDS011;8800;50.118;9.900;2023-05-21T03:27:25;21.75;;;13.32;;
17365;SDS011;8800;50.118;9.900;2023-05-21T03:29:52;21.27;;;13.25;;
17365;SDS011;8800;50.118;9.900;2023-05-21T03:32:19;22.33;;;13.43;;
17365;SDS011;8800;50.118;9.900;2023-05-21T03:34:46;22.05;;;13.18;;
17365;SDS011;8800;50.118;9.900;2023-05-21T03:37:16;18.85;;;13.18;;
17365;SDS011;8800;50.118;9.900;2023-05-21T03:39:43;20.60;;;13.52;;
17365;SDS011;8800;50.118;9.900;2023-05-21T03:42:11;21.50;;;13.30;;
17365;SDS011;8800;50.118;9.900;2023-05-21T03:44:38;19.80;;;12.75;;
17365;SDS011;8800;50.118;9.900;2023-05-21T03:47:05;23.52;;;13.68;;
17365;SDS011;8800;50.118;9.900;2023-05-21T03:49:31;21.30;;;12.63;;
17365;SDS011;8800;50.118;9.900;2023-05-21T03:52:00;19.83;;;13.52;;
17365;SDS011;8800;50.118;9.900;2023-05-21T03:54:26;21.60;;;12.80;;
17365;SDS011;8800;50.118;9.900;2023-05-21T03:56:53;22.83;;;13.82;;
17365;SDS011;8800;50.118;9.900;2023-05-21T03:59:21;20.33;;;13.25;;
17365;SDS011;8800;50.118;9.900;2023-05-21T04:01:48;24.92;;;13.90;;
17365;SDS011;8800;50.118;9.900;2023-05-21T04:04:14;25.08;;;13.05;;
17365;SDS011;8800;50.118;9.900;2023-05-21T04:06:41;20.60;;;13.75;;
17365;SDS011;8800;50.118;9.900;2023-05-21T04:09:07;22.80;;;13.35;;
17365;SDS011;8800;50.118;9.900;2023-05-21T04:11:34;20.30;;;12.65;;
17365;SDS011;8800;50.118;9.900;2023-05-21T04:14:01;21.27;;;13.48;;
17365;SDS011;8800;50.118;9.900;2023-05-21T04:16:29;22.23;;;12.65;;
17365;SDS011;8800;50.118;9.900;2023-05-21T04:18:58;23.70;;;13.45;;
17365;SDS011;8800;50.118;9.900;2023-05-21T04:21:25;18.65;;;13.02;;
17365;SDS011;8800;50.118;9.900;2023-05-21T04:23:51;18.33;;;12.45;;
17365;SDS011;8800;50.118;9.900;2023-05-21T04:26:18;20.77;;;13.68;;
17365;SDS011;8800;50.118;9.900;2023-05-21T04:28:45;20.83;;;13.48;;
17365;SDS011;8800;50.118;9.900;2023-05-21T04:31:15;21.23;;;13.43;;
17365;SDS011;8800;50.118;9.900;2023-05-21T04:33:43;20.65;;;13.02;;
17365;SDS011;8800;50.118;9.900;2023-05-21T04:36:10;19.17;;;12.77;;
17365;SDS011;8800;50.118;9.900;2023-05-21T04:38:36;20.70;;;12.85;;
17365;SDS011;8800;50.118;9.900;2023-05-21T04:41:05;20.65;;;12.25;;
17365;SDS011;8800;50.118;9.900;2023-05-21T04:43:34;18.13;;;12.73;;
17365;SDS011;8800;50.118;9.900;2023-05-21T04:46:02;18.98;;;12.95;;
17365;SDS011;8800;50.118;9.900;2023-05-21T04:48:31;23.55;;;12.85;;
17365;SDS011;8800;50.118;9.900;2023-05-21T04:51:02;18.40;;;12.35;;
17365;SDS011;8800;50.118;9.900;2023-05-21T04:53:29;21.00;;;13.23;;
17365;SDS011;8800;50.118;9.900;2023-05-21T04:55:56;18.65;;;12.35;;
17365;SDS011;8800;50.118;9.900;2023-05-21T04:58:23;17.95;;;12.70;;
17365;SDS011;8800;50.118;9.900;2023-05-21T05:00:50;20.60;;;13.57;;
17365;SDS011;8800;50.118;9.900;2023-05-21T05:03:17;20.85;;;13.65;;
17365;SDS011;8800;50.118;9.900;2023-05-21T05:05:44;27.42;;;16.15;;
17365;SDS011;8800;50.118;9.900;2023-05-21T05:08:13;25.98;;;13.65;;
17365;SDS011;8800;50.118;9.900;2023-05-21T05:10:41;21.13;;;13.93;;
17365;SDS011;8800;50.118;9.900;2023-05-21T05:13:08;21.58;;;13.07;;
17365;SDS011;8800;50.118;9.900;2023-05-21T05:15:36;19.52;;;13.10;;
17365;SDS011;8800;50.118;9.900;2023-05-21T05:18:03;21.45;;;12.48;;
17365;SDS011;8800;50.118;9.900;2023-05-21T05:20:30;18.75;;;12.20;;
17365;SDS011;8800;50.118;9.900;2023-05-21T05:22:59;18.52;;;12.43;;
17365;SDS011;8800;50.118;9.900;2023-05-21T05:25:27;22.20;;;12.85;;
17365;SDS011;8800;50.118;9.900;2023-05-21T05:27:54;22.33;;;13.00;;
17365;SDS011;8800;50.118;9.900;2023-05-21T05:30:21;18.95;;;12.80;;
17365;SDS011;8800;50.118;9.900;2023-05-21T05:32:47;18.48;;;12.50;;
17365;SDS011;8800;50.118;9.900;2023-05-21T05:35:14;20.38;;;13.02;;
17365;SDS011;8800;50.118;9.900;2023-05-21T05:37:41;17.80;;;12.30;;
17365;SDS011;8800;50.118;9.900;2023-05-21T05:40:07;21.05;;;12.68;;
17365;SDS011;8800;50.118;9.900;2023-05-21T05:42:35;18.63;;;12.05;;
17365;SDS011;8800;50.118;9.900;2023-05-21T05:45:03;17.67;;;11.68;;
17365;SDS011;8800;50.118;9.900;2023-05-21T05:47:31;17.90;;;12.93;;
17365;SDS011;8800;50.118;9.900;2023-05-21T05:49:58;19.30;;;12.25;;
17365;SDS011;8800;50.118;9.900;2023-05-21T05:52:25;17.70;;;12.27;;
17365;SDS011;8800;50.118;9.900;2023-05-21T05:54:52;18.35;;;11.73;;
17365;SDS011;8800;50.118;9.900;2023-05-21T05:57:18;16.13;;;11.00;;
17365;SDS011;8800;50.118;9.900;2023-05-21T05:59:46;18.52;;;12.40;;
17365;SDS011;8800;50.118;9.900;2023-05-21T06:02:13;18.33;;;12.35;;
17365;SDS011;8800;50.118;9.900;2023-05-21T06:04:39;17.67;;;12.07;;
17365;SDS011;8800;50.118;9.900;2023-05-21T06:07:06;16.50;;;11.88;;
17365;SDS011;8800;50.118;9.900;2023-05-21T06:09:33;19.15;;;12.00;;
17365;SDS011;8800;50.118;9.900;2023-05-21T06:12:02;18.50;;;12.82;;
17365;SDS011;8800;50.118;9.900;2023-05-21T06:14:28;19.02;;;12.27;;
17365;SDS011;8800;50.118;9.900;2023-05-21T06:16:56;15.70;;;11.32;;
17365;SDS011;8800;50.118;9.900;2023-05-21T06:19:23;15.50;;;11.27;;
17365;SDS011;8800;50.118;9.900;2023-05-21T06:21:50;18.73;;;11.90;;
17365;SDS011;8800;50.118;9.900;2023-05-21T06:24:16;18.02;;;11.13;;
17365;SDS011;8800;50.118;9.900;2023-05-21T06:26:43;15.85;;;11.73;;
17365;SDS011;8800;50.118;9.900;2023-05-21T06:29:10;16.23;;;11.38;;
17365;SDS011;8800;50.118;9.900;2023-05-21T06:31:37;14.95;;;11.02;;
17365;SDS011;8800;50.118;9.900;2023-05-21T06:34:05;17.50;;;11.55;;
17365;SDS011;8800;50.118;9.900;2023-05-21T06:36:31;18.17;;;11.10;;
17365;SDS011;8800;50.118;9.900;2023-05-21T06:38:59;16.02;;;10.82;;
17365;SDS011;8800;50.118;9.900;2023-05-21T06:41:26;17.38;;;10.77;;
17365;SDS011;8800;50.118;9.900;2023-05-21T06:43:54;16.83;;;10.82;;
17365;SDS011;8800;50.118;9.900;2023-05-21T06:46:21;18.75;;;11.40;;
17365;SDS011;8800;50.118;9.900;2023-05-21T06:48:48;17.60;;;11.05;;
17365;SDS011;8800;50.118;9.900;2023-05-21T06:51:16;14.10;;;10.48;;
17365;SDS011;8800;50.118;9.900;2023-05-21T06:53:43;16.95;;;10.38;;
17365;SDS011;8800;50.118;9.900;2023-05-21T06:56:09;18.63;;;11.07;;
17365;SDS011;8800;50.118;9.900;2023-05-21T06:58:37;16.83;;;10.85;;
17365;SDS011;8800;50.118;9.900;2023-05-21T07:01:04;18.50;;;10.75;;
17365;SDS011;8800;50.118;9.900;2023-05-21T07:03:31;17.85;;;10.68;;
17365;SDS011;8800;50.118;9.900;2023-05-21T07:05:59;14.20;;;10.23;;
17365;SDS011;8800;50.118;9.900;2023-05-21T07:08:27;19.63;;;10.85;;
17365;SDS011;8800;50.118;9.900;2023-05-21T07:10:54;14.40;;;10.15;;
17365;SDS011;8800;50.118;9.900;2023-05-21T07:13:21;17.38;;;10.70;;
17365;SDS011;8800;50.118;9.900;2023-05-21T07:15:48;15.70;;;10.90;;
17365;SDS011;8800;50.118;9.900;2023-05-21T07:18:15;13.68;;;10.32;;
17365;SDS011;8800;50.118;9.900;2023-05-21T07:20:41;14.82;;;10.50;;
17365;SDS011;8800;50.118;9.900;2023-05-21T07:23:08;14.43;;;10.07;;
17365;SDS011;8800;50.118;9.900;2023-05-21T07:25:36;13.85;;;10.02;;
17365;SDS011;8800;50.118;9.900;2023-05-21T07:28:03;14.57;;;9.90;;
17365;SDS011;8800;50.118;9.900;2023-05-21T07:30:29;15.88;;;10.45;;
17365;SDS011;8800;50.118;9.900;2023-05-21T07:32:56;16.65;;;11.10;;
17365;SDS011;8800;50.118;9.900;2023-05-21T07:35:22;14.20;;;10.38;;
17365;SDS011;8800;50.118;9.900;2023-05-21T07:37:53;14.45;;;9.57;;
17365;SDS011;8800;50.118;9.900;2023-05-21T07:40:19;16.00;;;10.35;;
17365;SDS011;8800;50.118;9.900;2023-05-21T07:42:48;13.65;;;10.05;;
17365;SDS011;8800;50.118;9.900;2023-05-21T07:45:15;13.57;;;9.95;;
17365;SDS011;8800;50.118;9.900;2023-05-21T07:47:43;15.70;;;9.70;;
17365;SDS011;8800;50.118;9.900;2023-05-21T07:50:11;14.60;;;10.40;;
17365;SDS011;8800;50.118;9.900;2023-05-21T07:52:37;13.18;;;9.82;;
17365;SDS011;8800;50.118;9.900;2023-05-21T07:55:04;14.00;;;9.73;;
17365;SDS011;8800;50.118;9.900;2023-05-21T07:57:31;14.20;;;9.50;;
17365;SDS011;8800;50.118;9.900;2023-05-21T08:00:01;13.73;;;10.00;;
17365;SDS011;8800;50.118;9.900;2023-05-21T08:02:31;15.68;;;10.80;;
17365;SDS011;8800;50.118;9.900;2023-05-21T08:04:57;15.75;;;10.57;;
17365;SDS011;8800;50.118;9.900;2023-05-21T08:07:25;13.48;;;10.32;;
17365;SDS011;8800;50.118;9.900;2023-05-21T08:09:54;13.55;;;9.50;;
17365;SDS011;8800;50.118;9.900;2023-05-21T08:12:21;12.10;;;9.60;;
17365;SDS011;8800;50.118;9.900;2023-05-21T08:14:48;15.20;;;10.13;;
17365;SDS011;8800;50.118;9.900;2023-05-21T08:17:16;11.05;;;9.02;;
17365;SDS011;8800;50.118;9.900;2023-05-21T08:19:42;15.68;;;10.45;;
17365;SDS011;8800;50.118;9.900;2023-05-21T08:22:09;13.45;;;9.30;;
17365;SDS011;8800;50.118;9.900;2023-05-21T08:24:36;14.10;;;9.48;;
17365;SDS011;8800;50.118;9.900;2023-05-21T08:27:03;11.02;;;8.93;;
17365;SDS011;8800;50.118;9.900;2023-05-21T08:29:29;13.50;;;9.52;;
17365;SDS011;8800;50.118;9.900;2023-05-21T08:31:57;12.40;;;9.60;;
17365;SDS011;8800;50.118;9.900;2023-05-21T08:34:28;12.77;;;9.50;;
17365;SDS011;8800;50.118;9.900;2023-05-21T08:36:58;11.55;;;8.88;;
17365;SDS011;8800;50.118;9.900;2023-05-21T08:39:25;12.35;;;9.02;;
17365;SDS011;8800;50.118;9.900;2023-05-21T08:41:56;12.57;;;8.85;;
17365;SDS011;8800;50.118;9.900;2023-05-21T08:44:27;16.58;;;9.23;;
17365;SDS011;8800;50.118;9.900;2023-05-21T08:46:56;12.90;;;8.95;;
17365;SDS011;8800;50.118;9.900;2023-05-21T08:49:25;15.35;;;9.85;;
17365;SDS011;8800;50.118;9.900;2023-05-21T08:51:53;13.82;;;9.68;;
17365;SDS011;8800;50.118;9.900;2023-05-21T08:54:21;12.38;;;8.68;;
17365;SDS011;8800;50.118;9.900;2023-05-21T08:56:48;11.80;;;8.88;;
17365;SDS011;8800;50.118;9.900;2023-05-21T08:59:14;14.90;;;9.30;;
17365;SDS011;8800;50.118;9.900;2023-05-21T09:01:42;12.52;;;9.07;;
17365;SDS011;8800;50.118;9.900;2023-05-21T09:04:10;11.43;;;8.80;;
17365;SDS011;8800;50.118;9.900;2023-05-21T09:06:40;13.27;;;8.77;;
17365;SDS011;8800;50.118;9.900;2023-05-21T09:09:10;11.25;;;8.20;;
17365;SDS011;8800;50.118;9.900;2023-05-21T09:11:40;13.07;;;8.38;;
17365;SDS011;8800;50.118;9.900;2023-05-21T09:14:07;10.90;;;8.20;;
17365;SDS011;8800;50.118;9.900;2023-05-21T09:16:34;10.50;;;8.20;;
17365;SDS011;8800;50.118;9.900;2023-05-21T09:19:01;11.25;;;8.18;;
17365;SDS011;8800;50.118;9.900;2023-05-21T09:21:28;11.35;;;8.52;;
17365;SDS011;8800;50.118;9.900;2023-05-21T09:23:55;11.05;;;8.27;;
17365;SDS011;8800;50.118;9.900;2023-05-21T09:26:24;12.65;;;8.52;;
17365;SDS011;8800;50.118;9.900;2023-05-21T09:28:51;12.52;;;8.90;;
17365;SDS011;8800;50.118;9.900;2023-05-21T09:31:22;13.20;;;8.55;;
17365;SDS011;8800;50.118;9.900;2023-05-21T09:33:48;25.33;;;8.60;;
17365;SDS011;8800;50.118;9.900;2023-05-21T09:36:16;8.63;;;7.20;;
17365;SDS011;8800;50.118;9.900;2023-05-21T09:38:44;10.52;;;7.93;;
17365;SDS011;8800;50.118;9.900;2023-05-21T09:41:10;11.02;;;8.18;;
17365;SDS011;8800;50.118;9.900;2023-05-21T09:43:38;11.90;;;7.68;;
17365;SDS011;8800;50.118;9.900;2023-05-21T09:46:06;10.52;;;8.10;;
17365;SDS011;8800;50.118;9.900;2023-05-21T09:48:37;10.15;;;8.32;;
17365;SDS011;8800;50.118;9.900;2023-05-21T09:51:11;10.35;;;7.70;;
17365;SDS011;8800;50.118;9.900;2023-05-21T09:53:47;15.35;;;8.20;;
17365;SDS011;8800;50.118;9.900;2023-05-21T09:56:14;11.95;;;8.20;;
17365;SDS011;8800;50.118;9.900;2023-05-21T09:58:44;9.90;;;7.63;;
17365;SDS011;8800;50.118;9.900;2023-05-21T10:01:11;11.77;;;8.10;;
17365;SDS011;8800;50.118;9.900;2023-05-21T10:03:38;9.27;;;7.32;;
17365;SDS011;8800;50.118;9.900;2023-05-21T10:06:05;11.82;;;7.53;;
17365;SDS011;8800;50.118;9.900;2023-05-21T10:08:34;9.30;;;7.45;;
17365;SDS011;8800;50.118;9.900;2023-05-21T10:11:02;12.25;;;7.97;;
17365;SDS011;8800;50.118;9.900;2023-05-21T10:13:29;11.15;;;8.30;;
17365;SDS011;8800;50.118;9.900;2023-05-21T10:16:00;11.18;;;7.80;;
17365;SDS011;8800;50.118;9.900;2023-05-21T10:18:27;11.90;;;7.93;;
17365;SDS011;8800;50.118;9.900;2023-05-21T10:20:55;9.60;;;7.63;;
17365;SDS011;8800;50.118;9.900;2023-05-21T10:23:22;9.70;;;8.05;;
17365;SDS011;8800;50.118;9.900;2023-05-21T10:25:49;11.50;;;8.30;;
17365;SDS011;8800;50.118;9.900;2023-05-21T10:28:16;10.90;;;7.70;;
17365;SDS011;8800;50.118;9.900;2023-05-21T10:30:43;11.65;;;7.70;;
17365;SDS011;8800;50.118;9.900;2023-05-21T10:33:12;14.73;;;8.00;;
17365;SDS011;8800;50.118;9.900;2023-05-21T10:35:41;14.52;;;8.43;;
17365;SDS011;8800;50.118;9.900;2023-05-21T10:38:08;11.70;;;8.63;;
17365;SDS011;8800;50.118;9.900;2023-05-21T10:40:34;10.13;;;7.78;;
17365;SDS011;8800;50.118;9.900;2023-05-21T10:43:07;11.63;;;7.78;;
17365;SDS011;8800;50.118;9.900;2023-05-21T10:45:41;11.27;;;7.45;;
17365;SDS011;8800;50.118;9.900;2023-05-21T10:48:27;9.88;;;7.47;;
17365;SDS011;8800;50.118;9.900;2023-05-21T10:51:09;11.85;;;7.72;;
17365;SDS011;8800;50.118;9.900;2023-05-21T10:53:42;9.70;;;7.40;;
17365;SDS011;8800;50.118;9.900;2023-05-21T10:56:13;9.68;;;7.72;;
17365;SDS011;8800;50.118;9.900;2023-05-21T11:01:27;10.52;;;7.30;;
17365;SDS011;8800;50.118;9.900;2023-05-21T11:03:56;9.75;;;7.18;;
17365;SDS011;8800;50.118;9.900;2023-05-21T11:06:23;10.07;;;7.88;;
17365;SDS011;8800;50.118;9.900;2023-05-21T11:08:51;9.20;;;7.43;;
17365;SDS011;8800;50.118;9.900;2023-05-21T11:14:02;10.35;;;7.43;;
17365;SDS011;8800;50.118;9.900;2023-05-21T11:16:48;10.80;;;7.97;;
17365;SDS011;8800;50.118;9.900;2023-05-21T11:19:16;10.68;;;7.65;;
17365;SDS011;8800;50.118;9.900;2023-05-21T11:21:43;11.05;;;7.63;;
17365;SDS011;8800;50.118;9.900;2023-05-21T11:24:17;10.50;;;7.32;;
17365;SDS011;8800;50.118;9.900;2023-05-21T11:27:00;9.80;;;7.47;;
17365;SDS011;8800;50.118;9.900;2023-05-21T11:29:31;13.80;;;7.70;;
17365;SDS011;8800;50.118;9.900;2023-05-21T11:31:59;9.57;;;7.55;;
17365;SDS011;8800;50.118;9.900;2023-05-21T11:34:34;12.38;;;8.00;;
17365;SDS011;8800;50.118;9.900;2023-05-21T11:40:17;11.20;;;7.93;;
17365;SDS011;8800;50.118;9.900;2023-05-21T11:42:47;8.45;;;7.43;;
17365;SDS011;8800;50.118;9.900;2023-05-21T11:45:15;8.50;;;7.15;;
17365;SDS011;8800;50.118;9.900;2023-05-21T11:47:43;9.45;;;7.13;;
17365;SDS011;8800;50.118;9.900;2023-05-21T11:50:12;9.18;;;7.57;;
17365;SDS011;8800;50.118;9.900;2023-05-21T11:52:39;10.88;;;7.18;;
17365;SDS011;8800;50.118;9.900;2023-05-21T11:55:07;10.32;;;7.07;;
17365;SDS011;8800;50.118;9.900;2023-05-21T11:57:35;10.23;;;7.22;;
17365;SDS011;8800;50.118;9.900;2023-05-21T12:00:03;10.10;;;7.53;;
17365;SDS011;8800;50.118;9.900;2023-05-21T12:02:36;8.90;;;6.93;;
17365;SDS011;8800;50.118;9.900;2023-05-21T12:05:03;9.88;;;6.43;;
17365;SDS011;8800;50.118;9.900;2023-05-21T12:07:31;9.50;;;6.72;;
17365;SDS011;8800;50.118;9.900;2023-05-21T12:10:00;9.07;;;6.47;;
17365;SDS011;8800;50.118;9.900;2023-05-21T12:12:27;9.00;;;6.65;;
17365;SDS011;8800;50.118;9.900;2023-05-21T12:14:54;8.80;;;6.57;;
17365;SDS011;8800;50.118;9.900;2023-05-21T12:17:21;10.02;;;6.43;;
17365;SDS011;8800;50.118;9.900;2023-05-21T12:19:48;9.45;;;5.97;;
17365;SDS011;8800;50.118;9.900;2023-05-21T12:22:16;7.88;;;6.28;;
17365;SDS011;8800;50.118;9.900;2023-05-21T12:24:46;8.70;;;6.50;;
17365;SDS011;8800;50.118;9.900;2023-05-21T12:27:13;8.20;;;6.25;;
17365;SDS011;8800;50.118;9.900;2023-05-21T12:29:41;9.07;;;6.18;;
17365;SDS011;8800;50.118;9.900;2023-05-21T12:32:09;9.60;;;6.30;;
17365;SDS011;8800;50.118;9.900;2023-05-21T12:34:39;8.60;;;6.45;;
17365;SDS011;8800;50.118;9.900;2023-05-21T12:37:07;12.05;;;6.57;;
17365;SDS011;8800;50.118;9.900;2023-05-21T12:39:37;8.77;;;6.80;;
17365;SDS011;8800;50.118;9.900;2023-05-21T12:42:05;10.48;;;6.55;;
17365;SDS011;8800;50.118;9.900;2023-05-21T12:44:32;9.85;;;6.97;;
17365;SDS011;8800;50.118;9.900;2023-05-21T12:46:59;10.63;;;6.22;;
17365;SDS011;8800;50.118;9.900;2023-05-21T12:49:32;8.27;;;6.47;;
17365;SDS011;8800;50.118;9.900;2023-05-21T12:52:00;8.98;;;6.45;;
17365;SDS011;8800;50.118;9.900;2023-05-21T12:54:27;8.25;;;6.68;;
17365;SDS011;8800;50.118;9.900;2023-05-21T12:56:55;14.35;;;6.70;;
17365;SDS011;8800;50.118;9.900;2023-05-21T12:59:23;9.48;;;6.40;;
17365;SDS011;8800;50.118;9.900;2023-05-21T13:01:50;8.50;;;6.55;;
17365;SDS011;8800;50.118;9.900;2023-05-21T13:04:18;7.50;;;6.20;;
17365;SDS011;8800;50.118;9.900;2023-05-21T13:06:45;8.43;;;6.70;;
17365;SDS011;8800;50.118;9.900;2023-05-21T13:09:12;9.18;;;6.57;;
17365;SDS011;8800;50.118;9.900;2023-05-21T13:11:39;9.65;;;6.65;;
17365;SDS011;8800;50.118;9.900;2023-05-21T13:14:05;8.23;;;5.95;;
17365;SDS011;8800;50.118;9.900;2023-05-21T13:16:33;8.48;;;6.43;;
17365;SDS011;8800;50.118;9.900;2023-05-21T13:19:00;10.18;;;6.70;;
17365;SDS011;8800;50.118;9.900;2023-05-21T13:21:26;12.30;;;7.07;;
17365;SDS011;8800;50.118;9.900;2023-05-21T13:23:53;9.27;;;6.70;;
17365;SDS011;8800;50.118;9.900;2023-05-21T13:26:19;8.93;;;6.60;;
17365;SDS011;8800;50.118;9.900;2023-05-21T13:28:46;8.95;;;6.57;;
17365;SDS011;8800;50.118;9.900;2023-05-21T13:31:13;6.93;;;6.10;;
17365;SDS011;8800;50.118;9.900;2023-05-21T13:33:41;9.00;;;6.10;;
17365;SDS011;8800;50.118;9.900;2023-05-21T13:36:08;7.60;;;6.18;;
17365;SDS011;8800;50.118;9.900;2023-05-21T13:38:34;7.25;;;6.55;;
17365;SDS011;8800;50.118;9.900;2023-05-21T13:41:01;11.45;;;6.07;;
17365;SDS011;8800;50.118;9.900;2023-05-21T13:43:28;9.15;;;6.38;;
17365;SDS011;8800;50.118;9.900;2023-05-21T13:45:55;7.72;;;6.40;;
17365;SDS011;8800;50.118;9.900;2023-05-21T13:48:21;8.25;;;5.72;;
17365;SDS011;8800;50.118;9.900;2023-05-21T13:50:49;7.63;;;5.85;;
17365;SDS011;8800;50.118;9.900;2023-05-21T13:53:16;7.30;;;6.25;;
17365;SDS011;8800;50.118;9.900;2023-05-21T13:55:43;8.25;;;6.22;;
17365;SDS011;8800;50.118;9.900;2023-05-21T13:58:10;7.45;;;5.63;;
17365;SDS011;8800;50.118;9.900;2023-05-21T14:00:37;6.55;;;5.95;;
17365;SDS011;8800;50.118;9.900;2023-05-21T14:03:05;9.15;;;6.00;;
17365;SDS011;8800;50.118;9.900;2023-05-21T14:05:33;9.05;;;6.28;;
17365;SDS011;8800;50.118;9.900;2023-05-21T14:08:02;9.90;;;6.30;;
17365;SDS011;8800;50.118;9.900;2023-05-21T14:10:28;7.68;;;6.25;;
17365;SDS011;8800;50.118;9.900;2023-05-21T14:12:55;7.43;;;5.82;;
17365;SDS011;8800;50.118;9.900;2023-05-21T14:15:21;9.38;;;6.18;;
17365;SDS011;8800;50.118;9.900;2023-05-21T14:17:48;7.80;;;6.70;;
17365;SDS011;8800;50.118;9.900;2023-05-21T14:20:16;8.07;;;6.13;;
17365;SDS011;8800;50.118;9.900;2023-05-21T14:22:43;8.20;;;6.10;;
17365;SDS011;8800;50.118;9.900;2023-05-21T14:25:11;7.57;;;6.15;;
17365;SDS011;8800;50.118;9.900;2023-05-21T14:27:37;6.93;;;6.22;;
17365;SDS011;8800;50.118;9.900;2023-05-21T14:30:05;9.00;;;6.30;;
17365;SDS011;8800;50.118;9.900;2023-05-21T14:32:31;9.05;;;6.30;;
17365;SDS011;8800;50.118;9.900;2023-05-21T14:34:58;8.93;;;6.45;;
17365;SDS011;8800;50.118;9.900;2023-05-21T14:37:25;6.88;;;6.18;;
17365;SDS011;8800;50.118;9.900;2023-05-21T14:39:51;8.98;;;6.50;;
17365;SDS011;8800;50.118;9.900;2023-05-21T14:42:19;8.48;;;6.35;;
17365;SDS011;8800;50.118;9.900;2023-05-21T14:44:45;7.47;;;6.78;;
17365;SDS011;8800;50.118;9.900;2023-05-21T14:47:12;9.82;;;6.53;;
17365;SDS011;8800;50.118;9.900;2023-05-21T14:49:39;7.35;;;6.63;;
17365;SDS011;8800;50.118;9.900;2023-05-21T14:52:05;8.00;;;7.20;;
17365;SDS011;8800;50.118;9.900;2023-05-21T14:54:32;9.18;;;7.18;;